Time;durP1;ratioP1;P1;durP2;ratioP2;P2;SDS_P1;SDS_P2;PMS_P1;PMS_P2;Temp;Humidity;BMP_temperature;BMP_pressure;BME280_temperature;BME280_humidity;BME280_pressure;Samples;Min_cycle;Max_cycle;Signal;HPM_P1;HPM_P2
2023/10/31 00:01:51;;;;;;;2.63;0.00;;;9.80;99.90;;;;;;4960570;28;20426;-76
2023/10/31 00:04:16;;;;;;;2.97;0.55;;;9.90;99.90;;;;;;4960432;28;20035;-77
2023/10/31 00:06:42;;;;;;;1.98;0.30;;;9.90;99.90;;;;;;4960376;28;20019;-76
2023/10/31 00:09:08;;;;;;;5.97;0.70;;;9.80;99.90;;;;;;4977715;28;20397;-76
2023/10/31 00:11:34;;;;;;;3.65;0.40;;;9.90;99.90;;;;;;4977604;28;20061;-76
2023/10/31 00:13:59;;;;;;;7.00;1.52;;;9.90;99.90;;;;;;4977470;28;20058;-77
2023/10/31 00:16:25;;;;;;;6.32;2.17;;;9.80;99.90;;;;;;4960211;28;20027;-76
2023/10/31 00:18:50;;;;;;;4.43;1.92;;;9.90;99.90;;;;;;4960132;28;20023;-76
2023/10/31 00:21:16;;;;;;;6.00;2.53;;;9.90;99.90;;;;;;4977485;28;20364;-76
2023/10/31 00:23:46;;;;;;;6.60;2.13;;;10.10;99.90;;;;;;4977436;28;20402;-76
2023/10/31 00:26:11;;;;;;;6.20;2.33;;;9.90;99.90;;;;;;4960019;28;20054;-76
2023/10/31 00:28:37;;;;;;;7.28;2.72;;;9.90;99.90;;;;;;4977333;28;20069;-76
2023/10/31 00:31:03;;;;;;;9.27;3.17;;;9.90;99.90;;;;;;4959926;28;20034;-76
2023/10/31 00:33:29;;;;;;;10.27;3.20;;;9.90;99.90;;;;;;4959938;28;20023;-76
2023/10/31 00:35:55;;;;;;;6.03;2.80;;;10.00;99.90;;;;;;4977345;28;20441;-77
2023/10/31 00:38:21;;;;;;;7.13;3.30;;;9.90;99.90;;;;;;4959892;28;20415;-76
2023/10/31 00:40:46;;;;;;;20.27;4.22;;;10.00;99.90;;;;;;4977296;28;20109;-76
2023/10/31 00:43:12;;;;;;;10.05;3.70;;;10.00;99.90;;;;;;4959876;28;20487;-73
2023/10/31 00:45:37;;;;;;;6.78;3.15;;;10.00;99.90;;;;;;4977064;28;20038;-73
2023/10/31 00:48:03;;;;;;;7.88;2.58;;;10.00;99.90;;;;;;4959600;28;20038;-74
2023/10/31 00:50:29;;;;;;;7.47;2.90;;;10.00;99.90;;;;;;4977554;28;20050;-75
2023/10/31 00:52:54;;;;;;;6.07;3.17;;;10.00;99.90;;;;;;4976941;28;20490;-73
2023/10/31 00:55:20;;;;;;;6.82;2.65;;;10.00;99.90;;;;;;4976854;28;20116;-73
2023/10/31 00:57:45;;;;;;;5.55;2.67;;;10.70;99.90;;;;;;4977214;28;20078;-73
2023/10/31 01:00:11;;;;;;;9.45;2.83;;;10.10;99.90;;;;;;4976684;28;20072;-74
2023/10/31 01:02:37;;;;;;;8.60;1.85;;;10.00;99.90;;;;;;4959288;28;20022;-73
2023/10/31 01:05:03;;;;;;;6.50;2.00;;;10.30;99.90;;;;;;4976866;28;20504;-73
2023/10/31 01:07:28;;;;;;;6.45;2.60;;;10.10;99.90;;;;;;4976525;28;20097;-73
2023/10/31 01:09:54;;;;;;;6.80;2.03;;;10.10;99.90;;;;;;4959174;28;20019;-74
2023/10/31 01:12:19;;;;;;;10.35;2.25;;;10.10;99.90;;;;;;4976381;28;20113;-73
2023/10/31 01:14:45;;;;;;;5.10;1.20;;;10.10;99.90;;;;;;4977170;28;20481;-74
2023/10/31 01:17:10;;;;;;;2.10;0.82;;;10.10;99.90;;;;;;4958978;28;20039;-74
2023/10/31 01:19:36;;;;;;;5.32;0.73;;;10.10;99.90;;;;;;4959122;28;20398;-74
2023/10/31 01:22:02;;;;;;;3.65;1.05;;;10.10;99.90;;;;;;4976987;28;20073;-74
2023/10/31 01:24:27;;;;;;;4.75;0.95;;;10.10;99.90;;;;;;4976371;28;20033;-74
2023/10/31 01:26:53;;;;;;;4.75;1.05;;;10.10;99.90;;;;;;4976228;28;20089;-74
2023/10/31 01:29:18;;;;;;;5.63;1.00;;;10.10;99.90;;;;;;4976154;28;20027;-74
2023/10/31 01:31:44;;;;;;;8.68;1.65;;;10.10;99.90;;;;;;4958786;28;20105;-73
2023/10/31 01:34:09;;;;;;;5.93;1.52;;;10.10;99.90;;;;;;4976145;28;20027;-73
2023/10/31 01:36:35;;;;;;;4.93;1.63;;;10.10;99.90;;;;;;4976060;28;20098;-75
2023/10/31 01:39:01;;;;;;;10.10;2.65;;;10.10;99.90;;;;;;4976503;28;20031;-73
2023/10/31 01:41:27;;;;;;;11.27;3.10;;;10.10;99.90;;;;;;4976030;28;20022;-73
2023/10/31 01:43:53;;;;;;;10.90;3.17;;;10.10;99.90;;;;;;4958564;28;20082;-73
2023/10/31 01:46:18;;;;;;;9.80;3.78;;;10.10;99.90;;;;;;4975924;28;20034;-73
2023/10/31 01:48:44;;;;;;;9.95;3.90;;;10.10;99.90;;;;;;4958492;28;20130;-73
2023/10/31 01:51:10;;;;;;;8.60;3.45;;;10.10;99.90;;;;;;4958484;28;20031;-73
2023/10/31 01:53:37;;;;;;;8.73;3.00;;;10.10;99.90;;;;;;4975822;28;20077;-73
2023/10/31 01:56:04;;;;;;;17.25;4.25;;;10.10;99.90;;;;;;4974515;28;20022;-74
2023/10/31 01:58:33;;;;;;;8.85;3.65;;;10.10;99.90;;;;;;4975469;28;20027;-73
2023/10/31 02:01:00;;;;;;;7.38;3.33;;;10.20;99.90;;;;;;4975769;28;20050;-73
2023/10/31 02:03:29;;;;;;;13.07;4.05;;;10.20;99.90;;;;;;4975799;28;20027;-73
2023/10/31 02:05:55;;;;;;;;;;;10.20;99.90;;;;;;4974719;28;20023;-74
2023/10/31 02:08:21;;;;;;;11.68;4.07;;;10.20;99.90;;;;;;4975561;28;20405;-74
2023/10/31 02:10:46;;;;;;;7.88;4.18;;;10.20;99.90;;;;;;4974766;28;20107;-73
2023/10/31 02:13:17;;;;;;;11.25;4.05;;;10.20;99.90;;;;;;4958053;28;20041;-73
2023/10/31 02:15:44;;;;;;;14.48;4.07;;;10.10;99.90;;;;;;4975427;28;20042;-73
2023/10/31 02:18:09;;;;;;;10.18;3.80;;;10.20;99.90;;;;;;4975222;28;20363;-73
2023/10/31 02:20:35;;;;;;;6.38;2.83;;;10.20;99.90;;;;;;4976021;28;20030;-73
2023/10/31 02:23:02;;;;;;;9.88;2.95;;;10.80;99.90;;;;;;4975390;28;20491;-73
2023/10/31 02:25:28;;;;;;;10.27;3.08;;;10.30;99.90;;;;;;4975756;28;20058;-73
2023/10/31 02:27:54;;;;;;;7.70;2.83;;;10.30;99.90;;;;;;4975243;28;20057;-73
2023/10/31 02:30:19;;;;;;;6.28;2.53;;;10.30;99.90;;;;;;4976145;28;20034;-73
2023/10/31 02:32:45;;;;;;;7.47;3.00;;;10.30;99.90;;;;;;4975602;28;20150;-73
2023/10/31 02:35:11;;;;;;;8.07;2.83;;;10.30;99.90;;;;;;4975136;28;20474;-73
2023/10/31 02:37:37;;;;;;;8.32;2.85;;;10.30;99.90;;;;;;4974946;28;20027;-73
2023/10/31 02:40:03;;;;;;;8.75;2.90;;;10.30;99.90;;;;;;4957916;28;20114;-73
2023/10/31 02:42:29;;;;;;;5.88;2.13;;;10.20;99.90;;;;;;4975179;28;20077;-73
2023/10/31 02:44:54;;;;;;;10.05;2.85;;;10.30;99.90;;;;;;4957591;28;20027;-73
2023/10/31 02:47:20;;;;;;;8.05;2.78;;;10.20;99.90;;;;;;4973835;28;20027;-73
2023/10/31 02:49:45;;;;;;;8.70;2.60;;;10.20;99.90;;;;;;4957625;28;20125;-73
2023/10/31 02:52:11;;;;;;;12.90;2.55;;;10.20;99.90;;;;;;4974806;28;20066;-73
2023/10/31 02:54:37;;;;;;;7.05;2.10;;;10.20;99.90;;;;;;4975408;28;20355;-73
2023/10/31 02:57:03;;;;;;;9.38;2.30;;;;;;;;;;4974513;28;20073;-73
2023/10/31 02:59:29;;;;;;;7.20;2.10;;;10.30;99.90;;;;;;4974727;28;20038;-73
2023/10/31 03:01:57;;;;;;;4.93;1.73;;;10.30;99.90;;;;;;4974681;28;20019;-73
2023/10/31 03:04:22;;;;;;;7.78;1.30;;;10.30;99.90;;;;;;4957332;28;20015;-73
2023/10/31 03:06:48;;;;;;;3.15;0.93;;;10.20;99.90;;;;;;4974665;28;20030;-73
2023/10/31 03:09:14;;;;;;;7.78;0.95;;;10.20;99.90;;;;;;4974670;28;20018;-73
2023/10/31 03:11:40;;;;;;;2.20;0.22;;;10.30;99.90;;;;;;4957408;28;20030;-73
2023/10/31 03:14:05;;;;;;;1.98;0.25;;;10.30;99.90;;;;;;4957398;28;20034;-73
2023/10/31 03:16:32;;;;;;;3.03;0.10;;;10.20;99.90;;;;;;4974546;28;20033;-73
2023/10/31 03:18:58;;;;;;;2.83;0.52;;;10.20;99.90;;;;;;4973138;28;20074;-73
2023/10/31 03:21:24;;;;;;;1.65;0.03;;;10.20;99.90;;;;;;4975284;28;20062;-73
2023/10/31 03:23:52;;;;;;;1.35;0.10;;;10.20;99.90;;;;;;4980929;28;20026;-73
2023/10/31 03:26:19;;;;;;;5.20;0.00;;;10.20;99.90;;;;;;4980739;28;20014;-73
2023/10/31 03:28:45;;;;;;;2.17;0.10;;;10.10;99.90;;;;;;4980882;28;20074;-73
2023/10/31 03:31:14;;;;;;;2.55;0.28;;;10.20;99.90;;;;;;4963460;28;20039;-73
2023/10/31 03:33:41;;;;;;;2.72;0.00;;;10.20;99.90;;;;;;4980835;28;20023;-73
2023/10/31 03:36:08;;;;;;;2.08;0.00;;;10.20;99.90;;;;;;4980863;28;20490;-73
2023/10/31 03:38:34;;;;;;;0.43;0.00;;;10.20;99.90;;;;;;4981367;28;20111;-73
2023/10/31 03:41:00;;;;;;;4.38;0.10;;;10.20;99.90;;;;;;4963383;28;20598;-73
2023/10/31 03:43:25;;;;;;;1.33;0.00;;;10.20;99.90;;;;;;4981213;28;20018;-73
2023/10/31 03:45:52;;;;;;;1.42;0.25;;;10.20;99.90;;;;;;4963358;28;20014;-73
2023/10/31 03:48:18;;;;;;;2.05;0.00;;;;;;;;;;4980717;28;20038;-73
2023/10/31 03:50:43;;;;;;;4.63;0.65;;;10.20;99.90;;;;;;4980610;28;20048;-73
2023/10/31 03:53:09;;;;;;;1.17;0.00;;;10.10;99.90;;;;;;4980650;28;20085;-73
2023/10/31 03:55:35;;;;;;;1.55;0.00;;;10.10;99.90;;;;;;4980592;28;20069;-73
2023/10/31 03:58:00;;;;;;;5.28;0.00;;;10.10;99.90;;;;;;4963284;28;20513;-73
2023/10/31 04:00:26;;;;;;;0.40;0.00;;;10.10;99.90;;;;;;4981109;28;20181;-73
2023/10/31 04:02:51;;;;;;;1.13;0.38;;;10.00;99.90;;;;;;4980613;28;20431;-73
2023/10/31 04:05:18;;;;;;;0.25;0.00;;;10.10;99.90;;;;;;4963230;28;20085;-73
2023/10/31 04:07:44;;;;;;;3.38;0.52;;;10.10;99.90;;;;;;4963372;28;20035;-73
2023/10/31 04:10:10;;;;;;;2.00;0.00;;;10.00;99.90;;;;;;4980593;28;20027;-73
2023/10/31 04:12:35;;;;;;;1.17;0.00;;;10.00;99.90;;;;;;4979200;28;20380;-73
2023/10/31 04:15:02;;;;;;;4.07;0.00;;;10.00;99.90;;;;;;4980566;28;20109;-73
2023/10/31 04:17:27;;;;;;;0.98;0.52;;;10.00;99.90;;;;;;4980290;28;20027;-73
2023/10/31 04:19:53;;;;;;;0.77;0.00;;;10.00;99.90;;;;;;4980376;28;20023;-73
2023/10/31 04:22:18;;;;;;;0.35;0.20;;;10.00;99.90;;;;;;4980400;28;20050;-73
2023/10/31 04:24:44;;;;;;;0.38;0.00;;;10.00;99.90;;;;;;4980462;28;20114;-73
2023/10/31 04:27:10;;;;;;;0.68;0.00;;;9.90;99.90;;;;;;4962987;28;20074;-74
2023/10/31 04:29:35;;;;;;;0.70;0.00;;;9.90;99.90;;;;;;4980488;28;20410;-73
2023/10/31 04:32:01;;;;;;;0.40;0.00;;;9.80;99.90;;;;;;4980544;28;20459;-74
2023/10/31 04:34:27;;;;;;;0.20;0.00;;;9.80;99.90;;;;;;4977099;28;20478;-73
2023/10/31 04:36:52;;;;;;;0.00;0.00;;;9.80;99.90;;;;;;4977321;28;20048;-74
2023/10/31 04:39:18;;;;;;;1.80;0.00;;;9.80;99.90;;;;;;4977346;28;20082;-73
2023/10/31 04:41:43;;;;;;;0.35;0.00;;;9.80;99.90;;;;;;4977243;28;20098;-73
2023/10/31 04:44:09;;;;;;;0.00;0.00;;;9.80;99.90;;;;;;4977251;28;20110;-74
2023/10/31 04:46:35;;;;;;;0.60;0.00;;;9.80;99.90;;;;;;4975850;28;20054;-73
2023/10/31 04:49:00;;;;;;;1.80;0.20;;;9.80;99.90;;;;;;4959718;28;20027;-73
2023/10/31 04:51:26;;;;;;;1.45;0.00;;;9.80;99.90;;;;;;4959753;28;20031;-73
2023/10/31 04:53:51;;;;;;;0.40;0.00;;;9.70;99.90;;;;;;4976979;28;20031;-74
2023/10/31 04:56:17;;;;;;;0.52;0.00;;;9.70;99.90;;;;;;4976876;28;20115;-73
2023/10/31 04:58:43;;;;;;;0.15;0.00;;;9.70;99.90;;;;;;4959517;28;20026;-74
2023/10/31 05:01:13;;;;;;;1.70;0.00;;;9.70;99.90;;;;;;4976880;28;20030;-74
2023/10/31 05:03:38;;;;;;;1.75;0.00;;;9.70;99.90;;;;;;4976770;28;20058;-74
2023/10/31 05:06:05;;;;;;;0.60;0.25;;;9.70;99.90;;;;;;4959443;28;20112;-73
2023/10/31 05:08:31;;;;;;;1.83;0.17;;;9.70;99.90;;;;;;4959285;28;20034;-74
2023/10/31 05:10:57;;;;;;;1.33;0.20;;;9.70;99.90;;;;;;4959247;28;20121;-74
2023/10/31 05:13:23;;;;;;;1.45;0.00;;;9.70;99.90;;;;;;4959175;28;20045;-73
2023/10/31 05:15:49;;;;;;;1.17;0.10;;;9.80;99.90;;;;;;4976569;28;20027;-74
2023/10/31 05:18:16;;;;;;;1.67;0.52;;;9.80;99.90;;;;;;4976547;28;20043;-73
2023/10/31 05:20:41;;;;;;;1.15;0.30;;;9.80;99.90;;;;;;4959289;28;20030;-73
2023/10/31 05:23:07;;;;;;;2.83;0.40;;;10.60;99.90;;;;;;4977242;28;20023;-73
2023/10/31 05:25:32;;;;;;;3.40;0.45;;;9.80;99.90;;;;;;4977052;28;20022;-73
2023/10/31 05:27:59;;;;;;;1.85;0.00;;;9.80;99.90;;;;;;4976395;28;20468;-74
2023/10/31 05:30:27;;;;;;;1.38;0.10;;;10.00;99.90;;;;;;4959093;28;20097;-73
2023/10/31 05:32:53;;;;;;;3.28;0.00;;;9.80;99.90;;;;;;4976292;28;20026;-73
2023/10/31 05:35:19;;;;;;;2.33;0.25;;;9.80;99.90;;;;;;4959204;28;20037;-73
2023/10/31 05:37:46;;;;;;;0.75;0.00;;;9.80;99.90;;;;;;4976375;28;20092;-73
2023/10/31 05:40:12;;;;;;;0.17;0.00;;;9.80;99.90;;;;;;4958776;28;20394;-73
2023/10/31 05:42:38;;;;;;;1.30;0.00;;;9.80;99.90;;;;;;4976154;28;20096;-73
2023/10/31 05:45:04;;;;;;;0.80;0.00;;;9.80;99.90;;;;;;4958558;28;20022;-73
2023/10/31 05:47:30;;;;;;;3.78;0.10;;;9.80;99.90;;;;;;4976000;28;20073;-73
2023/10/31 05:49:55;;;;;;;4.22;0.55;;;9.70;99.90;;;;;;4976131;28;20062;-73
2023/10/31 05:52:21;;;;;;;3.92;0.85;;;9.70;99.90;;;;;;4975970;28;20065;-73
2023/10/31 05:54:47;;;;;;;3.70;0.60;;;10.00;99.90;;;;;;4958496;28;20034;-73
2023/10/31 05:57:12;;;;;;;2.40;0.70;;;9.80;99.90;;;;;;4958496;28;20371;-73
2023/10/31 05:59:38;;;;;;;2.55;0.85;;;9.80;99.90;;;;;;4976425;28;20054;-73
2023/10/31 06:02:04;;;;;;;4.38;1.33;;;9.80;99.90;;;;;;4975691;28;20027;-73
2023/10/31 06:04:29;;;;;;;2.70;0.88;;;9.70;99.90;;;;;;4958482;28;20019;-74
2023/10/31 06:06:55;;;;;;;2.83;0.70;;;9.70;99.90;;;;;;4974559;28;20034;-73
2023/10/31 06:09:21;;;;;;;3.78;0.77;;;9.80;99.90;;;;;;4975641;28;20482;-74
2023/10/31 06:11:47;;;;;;;3.60;0.52;;;9.70;99.90;;;;;;4975612;28;20060;-74
2023/10/31 06:14:13;;;;;;;4.97;1.25;;;9.70;99.90;;;;;;4975630;28;20066;-74
2023/10/31 06:16:45;;;;;;;2.28;0.40;;;9.70;99.90;;;;;;4975900;28;20066;-74
2023/10/31 06:19:10;;;;;;;1.77;0.00;;;9.70;99.90;;;;;;4975584;28;20054;-72
2023/10/31 06:21:36;;;;;;;1.33;0.20;;;9.70;99.90;;;;;;4976122;28;20043;-72
2023/10/31 06:24:05;;;;;;;2.75;0.10;;;9.80;99.90;;;;;;4958227;28;20546;-72
2023/10/31 06:26:31;;;;;;;;;;;9.70;99.90;;;;;;4975898;28;20501;-72
2023/10/31 06:28:56;;;;;;;2.25;0.15;;;10.00;99.90;;;;;;4958178;28;20001;-73
2023/10/31 06:31:22;;;;;;;3.90;0.10;;;9.70;99.90;;;;;;4958125;28;20023;-73
2023/10/31 06:33:47;;;;;;;2.28;0.00;;;9.70;99.90;;;;;;4975304;28;20042;-73
2023/10/31 06:36:13;;;;;;;1.48;0.00;;;9.70;99.90;;;;;;4976082;28;20038;-73
2023/10/31 06:38:41;;;;;;;0.00;0.00;;;9.60;99.90;;;;;;4957899;28;20023;-73
2023/10/31 06:41:07;;;;;;;1.55;0.00;;;9.70;99.90;;;;;;4975859;28;20030;-74
2023/10/31 06:43:32;;;;;;;2.50;0.03;;;9.60;99.90;;;;;;4975340;28;20023;-74
2023/10/31 06:46:00;;;;;;;1.15;0.00;;;9.60;99.90;;;;;;4975935;28;20026;-74
2023/10/31 06:48:28;;;;;;;1.75;0.00;;;9.60;99.90;;;;;;4975315;28;20026;-74
2023/10/31 06:50:54;;;;;;;2.00;0.00;;;9.50;99.90;;;;;;4975543;28;20030;-74
2023/10/31 06:53:20;;;;;;;0.88;0.00;;;9.60;99.90;;;;;;4975054;28;20393;-73
2023/10/31 06:55:45;;;;;;;4.10;0.10;;;9.60;99.90;;;;;;4975603;28;20033;-73
2023/10/31 06:58:11;;;;;;;1.60;0.00;;;9.50;99.90;;;;;;4974374;28;20372;-73
2023/10/31 07:00:37;;;;;;;0.30;0.00;;;9.50;99.90;;;;;;4975049;28;20026;-73
2023/10/31 07:03:08;;;;;;;0.15;0.00;;;9.50;99.90;;;;;;4974949;28;20050;-73
2023/10/31 07:05:34;;;;;;;0.20;0.00;;;9.50;99.90;;;;;;4975076;28;20382;-73
2023/10/31 07:08:00;;;;;;;1.27;0.10;;;9.60;99.90;;;;;;4957592;28;20054;-73
2023/10/31 07:10:25;;;;;;;1.23;0.00;;;9.60;99.90;;;;;;4974880;28;20430;-73
2023/10/31 07:12:51;;;;;;;1.55;0.00;;;9.70;99.90;;;;;;4974753;28;20121;-74
2023/10/31 07:15:16;;;;;;;1.75;0.10;;;9.80;99.90;;;;;;4975593;28;20050;-73
2023/10/31 07:17:42;;;;;;;1.25;0.17;;;9.90;99.90;;;;;;4974667;28;20026;-73
2023/10/31 07:20:08;;;;;;;0.25;0.00;;;10.00;99.90;;;;;;4957469;28;20022;-75
2023/10/31 07:22:34;;;;;;;0.73;0.00;;;10.00;99.90;;;;;;4974643;28;20019;-76
2023/10/31 07:25:02;;;;;;;2.13;0.00;;;10.10;99.90;;;;;;4974794;28;20030;-75
2023/10/31 07:27:28;;;;;;;0.28;0.00;;;10.10;99.90;;;;;;4974711;28;20030;-75
2023/10/31 07:29:53;;;;;;;0.30;0.00;;;10.10;99.90;;;;;;4975069;28;20033;-75
2023/10/31 07:32:19;;;;;;;1.52;0.05;;;10.20;99.90;;;;;;4974666;28;20498;-75
2023/10/31 07:34:44;;;;;;;1.50;0.10;;;10.30;99.90;;;;;;4974495;28;20073;-75
2023/10/31 07:37:10;;;;;;;0.43;0.10;;;10.30;99.90;;;;;;4974461;28;20399;-75
2023/10/31 07:39:36;;;;;;;0.60;0.00;;;10.30;99.90;;;;;;4974593;28;20011;-75
2023/10/31 07:42:01;;;;;;;0.45;0.00;;;10.30;99.90;;;;;;4974621;28;20038;-75
2023/10/31 07:44:27;;;;;;;1.13;0.10;;;10.30;99.90;;;;;;4957042;28;20394;-75
2023/10/31 07:46:52;;;;;;;3.83;0.15;;;10.30;99.90;;;;;;4974525;28;20081;-75
2023/10/31 07:49:18;;;;;;;1.20;0.32;;;10.30;99.90;;;;;;4974516;28;20110;-75
2023/10/31 07:51:45;;;;;;;2.17;0.00;;;10.30;99.90;;;;;;4974617;28;20027;-75
2023/10/31 07:54:12;;;;;;;0.70;0.00;;;10.40;99.90;;;;;;4957180;28;20031;-75
2023/10/31 07:56:38;;;;;;;0.28;0.00;;;10.40;99.90;;;;;;4973747;28;20442;-75
2023/10/31 07:59:04;;;;;;;4.57;0.50;;;10.40;99.90;;;;;;4973262;28;20023;-75
2023/10/31 08:01:29;;;;;;;2.80;0.22;;;10.50;99.90;;;;;;4973744;28;20157;-75
2023/10/31 08:03:55;;;;;;;3.13;0.17;;;10.50;99.90;;;;;;4973912;28;20029;-75
2023/10/31 08:06:20;;;;;;;2.22;0.30;;;10.50;99.90;;;;;;4955902;28;20070;-75
2023/10/31 08:08:46;;;;;;;1.20;0.13;;;10.50;99.90;;;;;;4974945;28;20394;-75
2023/10/31 08:11:11;;;;;;;5.05;0.68;;;11.10;99.90;;;;;;4977970;28;20486;-75
2023/10/31 08:13:37;;;;;;;3.33;0.25;;;10.60;99.90;;;;;;4977852;28;20457;-75
2023/10/31 08:16:05;;;;;;;3.88;0.73;;;10.50;99.90;;;;;;4977812;28;20058;-75
2023/10/31 08:18:31;;;;;;;4.22;0.05;;;10.60;99.90;;;;;;4976458;28;20027;-75
2023/10/31 08:20:56;;;;;;;2.63;0.75;;;10.60;99.90;;;;;;4960507;28;20434;-75
2023/10/31 08:23:22;;;;;;;3.20;0.95;;;10.50;99.90;;;;;;4978173;28;20389;-75
2023/10/31 08:25:48;;;;;;;3.53;0.40;;;10.60;99.90;;;;;;4977575;28;20454;-75
2023/10/31 08:28:13;;;;;;;4.03;0.50;;;10.70;99.90;;;;;;4977392;28;20031;-75
2023/10/31 08:30:39;;;;;;;1.60;0.30;;;10.70;99.90;;;;;;4978015;28;20019;-75
2023/10/31 08:33:04;;;;;;;4.18;1.05;;;10.70;99.90;;;;;;4977468;28;20023;-76
2023/10/31 08:35:30;;;;;;;2.08;0.35;;;10.90;99.90;;;;;;4977279;28;20027;-76
2023/10/31 08:37:56;;;;;;;6.60;0.85;;;10.90;99.90;;;;;;4976482;28;20077;-76
2023/10/31 08:40:21;;;;;;;2.67;0.50;;;11.00;99.90;;;;;;4959004;28;20026;-76
2023/10/31 08:42:47;;;;;;;3.00;0.50;;;11.10;99.90;;;;;;4975833;28;20082;-76
2023/10/31 08:45:12;;;;;;;2.53;0.75;;;11.30;99.90;;;;;;4977069;28;20093;-76
2023/10/31 08:47:38;;;;;;;2.80;0.25;;;11.30;99.90;;;;;;4976952;28;20074;-76
2023/10/31 08:50:08;;;;;;;3.20;0.50;;;11.40;99.90;;;;;;4977085;28;20027;-77
2023/10/31 08:52:34;;;;;;;1.70;0.30;;;11.50;99.90;;;;;;4976938;28;20081;-76
2023/10/31 08:55:00;;;;;;;3.22;0.35;;;11.60;99.90;;;;;;4976837;28;20022;-76
2023/10/31 08:57:25;;;;;;;5.72;0.63;;;11.70;99.90;;;;;;4976801;28;20031;-76
2023/10/31 08:59:51;;;;;;;3.63;0.47;;;;;;;;;;4976838;28;20061;-76
2023/10/31 09:02:20;;;;;;;5.28;0.55;;;11.80;99.90;;;;;;4977360;28;20030;-76
2023/10/31 09:04:45;;;;;;;3.80;0.43;;;11.90;99.90;;;;;;4976786;28;20107;-75
2023/10/31 09:07:11;;;;;;;2.63;0.80;;;11.90;99.90;;;;;;4976692;28;20162;-75
2023/10/31 09:09:38;;;;;;;6.65;1.17;;;12.00;99.90;;;;;;4976870;28;20137;-75
2023/10/31 09:12:04;;;;;;;3.13;0.80;;;12.00;99.90;;;;;;4976453;28;20065;-75
2023/10/31 09:14:29;;;;;;;2.38;1.27;;;12.10;99.90;;;;;;4976930;28;20027;-75
2023/10/31 09:16:55;;;;;;;4.72;1.15;;;12.20;99.90;;;;;;4959108;28;20025;-76
2023/10/31 09:19:20;;;;;;;4.28;0.75;;;12.40;99.90;;;;;;4958535;28;20035;-75
2023/10/31 09:21:46;;;;;;;4.82;1.17;;;12.50;99.90;;;;;;4976380;28;20124;-75
2023/10/31 09:24:12;;;;;;;3.20;0.73;;;12.70;99.90;;;;;;4976438;28;20042;-75
2023/10/31 09:26:41;;;;;;;4.45;1.13;;;12.90;99.90;;;;;;4976245;28;20022;-75
2023/10/31 09:29:07;;;;;;;5.20;1.05;;;13.10;99.90;;;;;;4976255;28;20029;-75
2023/10/31 09:31:32;;;;;;;1.90;0.85;;;13.10;99.90;;;;;;4976467;28;20035;-75
2023/10/31 09:34:03;;;;;;;9.45;1.65;;;13.00;99.90;;;;;;4958821;28;20023;-75
2023/10/31 09:36:31;;;;;;;7.30;1.48;;;13.10;99.90;;;;;;4958685;28;20157;-76
2023/10/31 09:38:57;;;;;;;5.20;0.40;;;14.20;99.90;;;;;;4975995;28;20031;-75
2023/10/31 09:41:23;;;;;;;5.28;0.60;;;13.30;99.90;;;;;;4975944;28;20372;-76
2023/10/31 09:43:48;;;;;;;7.47;1.27;;;13.30;99.90;;;;;;4958650;28;20154;-75
2023/10/31 09:46:14;;;;;;;4.82;0.55;;;13.40;99.90;;;;;;4958575;28;20022;-76
2023/10/31 09:48:40;;;;;;;4.90;1.17;;;13.40;99.90;;;;;;4975904;28;20050;-75
2023/10/31 09:51:06;;;;;;;1.65;0.43;;;13.50;99.90;;;;;;4975836;28;20113;-75
2023/10/31 09:53:37;;;;;;;1.92;0.35;;;13.50;99.90;;;;;;4958513;28;20034;-76
2023/10/31 09:56:03;;;;;;;2.65;0.52;;;13.50;99.90;;;;;;4975687;28;20122;-76
2023/10/31 09:58:28;;;;;;;3.45;0.55;;;13.50;99.90;;;;;;4975446;28;20027;-76
2023/10/31 10:00:54;;;;;;;3.22;0.73;;;13.50;99.90;;;;;;4958280;28;20027;-75
2023/10/31 10:03:21;;;;;;;7.82;0.93;;;13.60;99.90;;;;;;4976110;28;20463;-75
2023/10/31 10:05:48;;;;;;;2.45;0.52;;;13.60;99.90;;;;;;4976021;28;20078;-76
2023/10/31 10:08:16;;;;;;;6.30;0.40;;;13.60;99.90;;;;;;4975423;28;20035;-75
2023/10/31 10:10:41;;;;;;;2.40;0.80;;;13.60;99.90;;;;;;4975606;28;20534;-75
2023/10/31 10:13:07;;;;;;;4.47;0.80;;;13.50;99.90;;;;;;4975393;28;20313;-75
2023/10/31 10:15:48;;;;;;;4.50;0.63;;;13.70;99.90;;;;;;4976001;28;20030;-75
2023/10/31 10:18:31;;;;;;;5.35;1.20;;;13.80;99.90;;;;;;4975188;28;20031;-75
2023/10/31 10:21:04;;;;;;;5.57;1.13;;;13.90;99.90;;;;;;4975241;28;20051;-76
2023/10/31 10:23:31;;;;;;;3.80;0.73;;;13.90;99.90;;;;;;4975080;28;20015;-76
2023/10/31 10:25:58;;;;;;;10.82;1.15;;;14.30;99.90;;;;;;4957682;28;20019;-76
2023/10/31 10:28:29;;;;;;;3.15;0.95;;;14.00;99.90;;;;;;4975086;28;20050;-76
2023/10/31 10:30:54;;;;;;;5.60;0.70;;;14.00;99.90;;;;;;4957439;28;20074;-76
2023/10/31 10:33:21;;;;;;;11.57;1.15;;;14.10;99.90;;;;;;4974687;28;20034;-76
2023/10/31 10:35:46;;;;;;;7.03;0.90;;;14.10;99.90;;;;;;4975123;28;20022;-76
2023/10/31 10:38:14;;;;;;;4.43;0.70;;;14.50;99.90;;;;;;4974840;28;20549;-76
2023/10/31 10:40:44;;;;;;;6.53;0.53;;;14.30;99.90;;;;;;4975537;28;20481;-76
2023/10/31 10:43:33;;;;;;;6.72;0.40;;;14.40;99.90;;;;;;4974786;28;20030;-76
2023/10/31 10:45:59;;;;;;;5.47;0.55;;;14.40;99.90;;;;;;4975465;28;20023;-76
2023/10/31 10:48:26;;;;;;;4.32;0.28;;;14.40;99.90;;;;;;4975270;28;20110;-75
2023/10/31 10:50:59;;;;;;;2.60;0.40;;;14.20;99.90;;;;;;4973754;28;20118;-77
2023/10/31 10:53:30;;;;;;;9.48;0.50;;;14.20;99.90;;;;;;4975189;28;20094;-77
2023/10/31 10:56:02;;;;;;;8.43;0.70;;;14.00;99.90;;;;;;4975193;28;20030;-77
2023/10/31 10:58:41;;;;;;;3.35;0.35;;;13.80;99.90;;;;;;4974745;28;20041;-76
2023/10/31 11:01:08;;;;;;;5.88;0.43;;;13.70;99.90;;;;;;4957386;28;20390;-76
2023/10/31 11:03:34;;;;;;;2.42;0.65;;;13.80;99.90;;;;;;4957301;28;20031;-76
2023/10/31 11:06:00;;;;;;;6.43;1.08;;;13.80;99.90;;;;;;4975126;28;20382;-77
2023/10/31 11:08:27;;;;;;;4.13;0.60;;;14.00;99.90;;;;;;4974521;28;20042;-76
2023/10/31 11:10:54;;;;;;;3.45;0.17;;;14.20;99.90;;;;;;4974650;28;20022;-77
2023/10/31 11:13:20;;;;;;;11.95;0.95;;;14.60;99.90;;;;;;4974473;28;20062;-76
2023/10/31 11:15:47;;;;;;;3.55;0.43;;;15.00;99.90;;;;;;4974556;28;20030;-77
2023/10/31 11:18:14;;;;;;;3.95;0.08;;;15.10;99.90;;;;;;4974428;28;20062;-77
2023/10/31 11:20:40;;;;;;;4.75;0.00;;;15.10;99.90;;;;;;4957273;28;20023;-77
2023/10/31 11:23:06;;;;;;;1.77;0.00;;;15.10;99.90;;;;;;4975022;28;20023;-76
2023/10/31 11:25:33;;;;;;;2.13;0.10;;;14.70;99.90;;;;;;4974398;28;20430;-77
2023/10/31 11:28:12;;;;;;;4.15;0.10;;;14.70;99.90;;;;;;4974434;28;20023;-77
2023/10/31 11:30:37;;;;;;;4.80;1.05;;;14.40;99.90;;;;;;4957098;28;20081;-76
2023/10/31 11:33:05;;;;;;;4.35;0.40;;;14.50;99.90;;;;;;4974576;28;20031;-77
2023/10/31 11:35:32;;;;;;;5.18;0.30;;;14.60;99.90;;;;;;4974549;28;20019;-77
2023/10/31 11:38:08;;;;;;;5.25;0.30;;;14.10;99.90;;;;;;4974286;28;20118;-76
2023/10/31 11:40:54;;;;;;;4.65;0.55;;;13.70;99.90;;;;;;4974490;28;20027;-76
2023/10/31 11:43:20;;;;;;;4.95;0.30;;;13.70;99.90;;;;;;4955497;28;20046;-76
2023/10/31 11:45:47;;;;;;;4.60;0.57;;;13.60;99.90;;;;;;4960796;28;20026;-76
2023/10/31 11:48:14;;;;;;;6.63;0.90;;;13.50;99.90;;;;;;4960720;28;20035;-75
2023/10/31 11:50:40;;;;;;;7.68;1.00;;;13.30;99.90;;;;;;4977986;28;20058;-76
2023/10/31 11:53:16;;;;;;;4.03;1.00;;;13.20;99.90;;;;;;4960667;28;20125;-76
2023/10/31 11:55:46;;;;;;;4.45;1.25;;;13.20;99.90;;;;;;4977884;28;20027;-76
2023/10/31 11:58:23;;;;;;;3.83;2.03;;;13.20;99.90;;;;;;4977820;28;20058;-76
2023/10/31 12:00:50;;;;;;;10.23;3.65;;;13.20;99.90;;;;;;4978475;28;20106;-76
2023/10/31 12:03:18;;;;;;;6.05;2.53;;;13.40;99.90;;;;;;4978355;28;20105;-76
2023/10/31 12:06:04;;;;;;;11.60;3.03;;;13.50;99.90;;;;;;4978010;28;20022;-75
2023/10/31 12:08:32;;;;;;;7.20;3.10;;;13.70;99.90;;;;;;4960368;28;20034;-75
2023/10/31 12:11:05;;;;;;;7.63;3.23;;;14.00;99.90;;;;;;4977696;28;20033;-76
2023/10/31 12:13:31;;;;;;;8.02;3.20;;;14.00;99.90;;;;;;4977471;28;20090;-75
2023/10/31 12:15:58;;;;;;;6.93;2.97;;;13.90;99.90;;;;;;4959832;28;20169;-76
2023/10/31 12:18:24;;;;;;;7.72;3.13;;;13.90;99.90;;;;;;4960192;28;20030;-76
2023/10/31 12:20:50;;;;;;;12.38;3.53;;;13.70;99.90;;;;;;4978004;28;20363;-76
2023/10/31 12:23:17;;;;;;;10.55;4.68;;;13.70;99.90;;;;;;4977458;28;20030;-76
2023/10/31 12:25:50;;;;;;;12.55;4.75;;;13.80;99.90;;;;;;4977387;28;20019;-76
2023/10/31 12:28:17;;;;;;;12.48;4.75;;;13.70;99.90;;;;;;4977565;28;20038;-76
2023/10/31 12:30:47;;;;;;;9.82;4.57;;;13.60;99.90;;;;;;4977247;28;20022;-76
2023/10/31 12:33:13;;;;;;;8.18;4.13;;;13.60;99.90;;;;;;4959967;28;20122;-76
2023/10/31 12:35:39;;;;;;;11.18;4.55;;;13.50;99.90;;;;;;4977162;28;20537;-76
2023/10/31 12:38:05;;;;;;;13.18;5.45;;;13.50;99.90;;;;;;4976980;28;20031;-76
2023/10/31 12:40:31;;;;;;;12.15;4.80;;;13.60;99.90;;;;;;4977194;28;20074;-76
2023/10/31 12:42:58;;;;;;;14.55;5.25;;;13.60;99.90;;;;;;4959774;28;20435;-76
2023/10/31 12:45:24;;;;;;;13.38;5.25;;;13.60;99.90;;;;;;4976965;28;20019;-76
2023/10/31 12:48:04;;;;;;;14.85;5.55;;;13.70;99.90;;;;;;4976188;28;20042;-76